Timeline UpdatesTrip UpdatesNews PostsPvt PostsTravel TipsAdmin PostsConv PostsFollowed PostsChat RequestsBlog PostsPNR Posts

Disclaimer
Search
 
 
Mon Sep 22, 2014 11:44:42 ISTHomeTrainsΣChainsAtlasPNRForumGalleryNewsFAQTripsMembersLoginFeedback
No Recent News for this Train
Other Trains in the News **new
Latest...
.
Tue Feb 04, 2014 (11:44PM)
⇐ Return Journey: Train# 59049

59050/Viramgam Valsad Passenger (UnReserved)

Time-Table HAS CHANGED.
Sep 03 (12:27PM)
Change Departure Station:
Change Arrival Station:
Post a Train Travel TipPost a Train Travel Tip **new
Post a Comment/Question/Picture/VideoPost a Comment/Question/Picture/Video
Pantry/Catering
✕ NO Pantry Car
✕ NO Catering
RSA - Rake Sharing
Rake/Coach Composition
LOCO-SLR-GEN*16-SLR; As seen at Ahmedabad.
Loco
BRC WAG 5 HA
News    PNR    Forum    Time-Table    Availability    Fare Chart    Map    Arr/Dep History    Trips    Gallery    ΣChains    X/O    Timeline    
Travel Time: 11h 53m    52 halts    Distance: 316 km    Avg Speed: 26 km/hr
Type: Passenger
Zone: WR/Western
Departs @ 07:30 (Avg on time)
Platform# ???
SMTWTFS
Viramgam Junction/VG 
Arrives @ 19:23 (Avg 25m late)
Platform# 3
SMTWTFS
Maroli/MRL 

52 halts. 65 intermediate Stations between Viramgam Junction and Maroli

Show ALL intermediate Stations  Show Old Time-Table

#CodeStation NameX/OArrivesAvgDepartsAvgHaltPFDay#KmSpeedElevZoneAddress
1VGViramgam Junction (5)»  -07:30+0--10.05329mWRViramgam, Gujarat
2JKAJakhvadaX  07:43 07:44+607:44 07:46+61 2m--112.49231mWRState Highway 17, Gujarat
3VCNVirochannagarX  07:49 07:51-07:50 07:52-1m--120.03433mWRState Highway 17, Gujarat
4CEChharodiX  08:01 08:03+608:02 08:05+61 2m--126.36429mWRSH 17, Gujarat
5SAUSanandX  08:19 08:15+508:20 08:17+61 2m--137.06340mWRSanand, Gujarat
6ABDAmbli RoadX  08:40 08:28+408:41 08:30+71 2m--148.65750mWRAhmedabad, Gujarat
7CLDYChandlodiyaX  08:49 08:36+908:50 08:38+101 2m--154.34259mWRAhmedabad, Gujarat
8SBTSabarmati Junction (3) new halt!!  08:46+1208:48+172m--159.9952mWRAhmedabad, Gujarat
9ADIAhmedabad Junction (12)XO  09:25+810:15+250m5165.31651mWRAhmedabad, Gujarat
10MANManinagar (2)  10:26 10:27-10:27 10:29-1 2m1168.54850mWRAhmadabad, Gujarat
11VTAVatva (4)X  10:34 10:35+310:35 10:37+41 2m--173.31849mWRDist. Ahmedabad 382445, Gujarat
12GERGeratpur (2)  10:54 10:55+410:55 10:57+61 2m--178.64044mWRAhmadabad, Gujarat
13BJDBarejadi Nandej (3)XO  11:01 11:02+611:02 11:04+61 2m--182.03742mWRBareja-Barejadi Rd, Gujarat
14KANJKanij (3)  11:10 11:11+711:11 11:13+101 2m--186.31939mWRBareja-Barejadi Rd, Gujarat
15NEPNenpur (2)  11:21 11:22-11:22 11:24-1 2m--189.25035mWRState Highway 3, Gujarat
16MHDMahemdavad Kheda Road (4)  11:28 11:29+611:29 11:31+91 2m--193.35537mWRMahemdavad, Gujarat
17GTEGothaj (2)  11:39 11:40+1011:40 11:42+141 2m--1101.76232mWRState Highway 3, Gujarat
18NDNadiad Junction (4)X  11:51+1411:53+142m11110.94737mWRNadiad, Gujarat
19UTDUtarsanda (4)X  11:59 12:00+1512:00 12:02+161 2m--1116.44740mWRUttarsanda, Gujarat
20KBRVKanjari Boriyavi Junction (4)X  12:08 12:09+1612:09 12:11+221 2m--1121.95639mWRKanjari, Gujarat
21ANNDAnand Junction (6)  12:19+2512:22+253m11129.34144mWRAnand, Gujarat
22VXDVadod (3)XO  12:31 12:32+2512:32 12:34+271 2m--1136.21944mWRAnand District, Gujarat
23ADDAdas Road (4)X  12:46 12:47+2012:47 12:49+221 2m--1140.34642mWRNational Highway 8, Gujarat
24VDAVasad Junction (3)XO  12:58 12:55+2012:59 12:56+221m--1144.94340mWRVasad, Gujarat
25NDRNandesari (2)  13:06 13:03-13:07 13:04-1m--1149.93542mWRNandesari, Gujarat
26RNORanoli (2)  13:14 13:11+1913:15 13:12+221m--1154.11439mWRVadodara District, Gujarat
27BJWBajva (3)X  13:33 13:28+1813:34 13:29+211m--1157.91438mWRVadodara, Gujarat
28BRCVadodara Junction (7)X  14:10 14:00+1514:20 14:10+2110m21165.13036mWRVadodara 390005, Gujarat
29VSVishvamitri (4)  14:26 14:16+2714:27 14:17+291m--1168.14930mWRVadodara, Gujarat
30MPRMakarpura (4)  14:34 14:24+3014:35 14:25+311m--1173.86730mWRVadodara, Gujarat
31VRMVarnama (2)  14:40 14:30+3314:41 14:31+351m--1179.43928mWRVadodara, Gujarat
32ITAItola (4)  14:46 14:37+3614:47 14:38+381m--1183.35727mWRNational Highway 8 Vadodara, Gujarat
33KSPRKashipura Sarar (2)  14:52 14:42+4014:53 14:43+431m--1187.12926mWRGIDC Industrial Area, Gujarat
34MYGMiyagam Karjan (2)X  15:00 14:59+4315:01 15:00+441m11194.95329mWRKarjan, Gujarat
35LKDLakodara (4)X  15:10 15:09+4415:11 15:10+451m--1202.92626mWRNH 8, Gujarat
36PLJPalej (4)O  15:23 15:27+4215:24 15:28+431m--1210.22829mWRPalej, Gujarat
37VREVarediya (4)X  15:37 15:42+3915:38 15:43+411m--1216.85121mWRNH 8, Gujarat
38NIUNabipur (3)X  15:46 15:51+4315:47 15:52+451m--1223.64724mWRNabipur, Gujarat
39CVJChavaj (2)  15:56 16:01+4315:57 16:02+431m--1230.62520mWRBharuch, Gujarat
40BHBharuch Junction (5)XO  16:35 16:14+2716:40 16:19+275m41235.65119mWRBharuch, Gujarat
41AKVAnkleshwar Junction (4)X  16:48 16:30+3116:49 16:31+331m21244.93919mWRAnkleshwar, Gujarat
42PAOPanoli (3)X  17:05 16:47+3417:06 16:48+401m21255.31729mWRPanoli, Gujarat
43HATHathuran (2)  17:24 17:02-17:25 17:03-1m21259.14432mWRKosamba, Gujarat
44KSBKosamba Junction (3)X  17:31 17:09+2917:32 17:10+301m21263.54730mWRKosamba, Gujarat
45KIMKim (2)  17:43 17:20+3017:44 17:23+331 3m21271.33018mWRNH 8, Gujarat
46SYNSayan (3)XO  18:05 17:43+2818:06 17:44+291m21281.23021mWRSayan Satellite town, Gujarat
47GTXGothangam (2)  18:12 17:50+2818:13 17:51+281m21284.23719mWRAmroli Sayan Rd, Gujarat
48KSEKosad (2)X  18:19 17:57+2918:20 17:58+301m21287.81417mWRSurat, Gujarat
49URNUtran (3)XO  18:34 18:12+2418:35 18:17+231 5m21291.0715mWRSurat, Gujarat
50STSurat (4)X  18:50+1418:55+155m31294.93419mWRSurat 395001, Gujarat
51UDNUdhna Junction (3)  19:02+2019:03+201m21298.94816mWRUdhna 394210, Gujarat
52BHETBhestan (2)X  19:09+2219:10+221m21303.75713mWRSurat, Gujarat
53SCHSachin (3)X  19:16+2419:17+241m21309.46611mWRKansad Road Sachin, Gujarat
54MRLMaroli (3)•X  19:23+2519:24+251m31316.05115mWRMaroli, Gujarat
55NVSNavsari (3)  19:34+2119:35+221m21324.55614mWRNavsari, Gujarat
56VDHVedchha (3)X  19:44+2319:45+231m31332.93413mWRNavsari, Gujarat
57ACLAncheli (2)X  19:50 19:51-19:51 19:52-1m21336.35720mWRNavsari, Gujarat
58AMLAmalsad (3)X  19:56+2219:57+221m21340.15612mWRAmalsad, Gujarat
59BIMBilimora Junction (4)XO  20:03+2320:04+271m21345.73411mWRBilimora, Gujarat
60JRSJoravasan (2)X  20:10 20:11-20:11 20:12-1m21349.66115mWRJoravasan, Gujarat
61DGIDungri (3)  20:17+2620:18+271m21354.72020mWRNH 8, Gujarat
62BLValsad (3)  20:45+11-31363.6-15mWRValsad, Gujarat
Scroll to Top
Scroll to Bottom